createdAt,value
2023-02-15T00:00:38.936Z,96790.8
2023-02-15T00:01:41.697Z,96789.4
2023-02-15T00:02:44.152Z,96786.5
2023-02-15T00:03:46.164Z,96786.6
2023-02-15T00:04:48.632Z,96788.4
2023-02-15T00:05:51.149Z,96793.2
2023-02-15T00:06:53.459Z,96790.4
2023-02-15T00:07:55.962Z,96784.5
2023-02-15T00:08:58.234Z,96785.6
2023-02-15T00:10:00.741Z,96783
2023-02-15T00:11:02.989Z,96783.2
2023-02-15T00:12:05.220Z,96783.7
2023-02-15T00:13:07.420Z,96784.3
2023-02-15T00:14:09.958Z,96782.8
2023-02-15T00:15:12.512Z,96776.1
2023-02-15T00:16:15.384Z,96774.3
2023-02-15T00:17:17.947Z,96774.1
2023-02-15T00:18:20.192Z,96776.7
2023-02-15T00:19:22.716Z,96777.7
2023-02-15T00:20:25.259Z,96775.6
2023-02-15T00:21:27.756Z,96774.2
2023-02-15T00:22:29.990Z,96774.8
2023-02-15T00:23:32.247Z,96774.7
2023-02-15T00:24:34.728Z,96775.7
2023-02-15T00:25:37.240Z,96775
2023-02-15T00:26:39.784Z,96777.5
2023-02-15T00:27:42.313Z,96775
2023-02-15T00:28:44.802Z,96778.2
2023-02-15T00:29:47.317Z,96778.5
2023-02-15T00:30:50.479Z,96777.5
2023-02-15T00:31:53.260Z,96777.1
2023-02-15T00:32:55.868Z,96778.4
2023-02-15T00:33:58.086Z,96776.4
2023-02-15T00:35:00.592Z,96777.7
2023-02-15T00:36:04.193Z,96776.7
2023-02-15T00:37:06.691Z,96774.8
2023-02-15T00:38:08.912Z,96776.9
2023-02-15T00:39:11.440Z,96775.5
2023-02-15T00:40:13.974Z,96773.3
2023-02-15T00:41:16.503Z,96775.1
2023-02-15T00:42:19.109Z,96771.7
2023-02-15T00:43:21.340Z,96770.7
2023-02-15T00:44:23.558Z,96768.1
2023-02-15T00:45:26.094Z,96771.6
2023-02-15T00:46:28.349Z,96767.7
2023-02-15T00:47:30.983Z,96766.7
2023-02-15T00:48:33.510Z,96766.7
2023-02-15T00:49:36.047Z,96765.2
2023-02-15T00:50:38.531Z,96764.9
2023-02-15T00:51:41.103Z,96762.3
2023-02-15T00:52:43.328Z,96755.6
2023-02-15T00:53:45.843Z,96758.4
2023-02-15T00:54:48.052Z,96753.7
2023-02-15T00:55:49.999Z,96753.7
2023-02-15T00:56:52.518Z,96751.4
2023-02-15T00:57:54.754Z,96752.1
2023-02-15T00:58:57.045Z,96753
2023-02-15T00:59:59.278Z,96744.8
2023-02-15T01:01:01.665Z,96738
2023-02-15T01:02:03.951Z,96742.6
2023-02-15T01:03:06.567Z,96740.5
2023-02-15T01:04:09.382Z,96739.7
2023-02-15T01:05:11.968Z,96739.5
2023-02-15T01:06:14.473Z,96737.2
2023-02-15T01:07:16.981Z,96739.2
2023-02-15T01:08:19.480Z,96740.3
2023-02-15T01:09:21.978Z,96738.7
2023-02-15T01:10:24.212Z,96735.1
2023-02-15T01:11:26.776Z,96733.8
2023-02-15T01:12:29.287Z,96734
2023-02-15T01:13:31.788Z,96737.2
2023-02-15T01:14:34.299Z,96736.6
2023-02-15T01:15:37.080Z,96731.8
2023-02-15T01:16:39.640Z,96733.3
2023-02-15T01:17:42.209Z,96730.7
2023-02-15T01:18:44.824Z,96731.9
2023-02-15T01:19:47.346Z,96729.3
2023-02-15T01:20:49.979Z,96730.9
2023-02-15T01:21:52.509Z,96731.2
2023-02-15T01:22:55.011Z,96729.4
2023-02-15T01:23:57.522Z,96728.8
2023-02-15T01:25:00.017Z,96726.3
2023-02-15T01:26:03.853Z,96723.5
2023-02-15T01:27:06.580Z,96724.7
2023-02-15T01:28:09.086Z,96722.5
2023-02-15T01:29:11.603Z,96718.8
2023-02-15T01:30:14.468Z,96719.8
2023-02-15T01:31:17.550Z,96718.5
2023-02-15T01:32:19.924Z,96716.8
2023-02-15T01:33:21.838Z,96718
2023-02-15T01:34:24.437Z,96715.5
2023-02-15T01:35:26.709Z,96712.4
2023-02-15T01:36:28.951Z,96719.7
2023-02-15T01:37:31.436Z,96716.6
2023-02-15T01:38:33.668Z,96720.7
2023-02-15T01:39:36.182Z,96718.8
2023-02-15T01:40:38.665Z,96716.4
2023-02-15T01:41:41.162Z,96717.1
2023-02-15T01:42:43.650Z,96716.5
2023-02-15T01:43:46.195Z,96714.9
2023-02-15T01:44:48.684Z,96711.8
2023-02-15T01:45:51.338Z,96715.8
2023-02-15T01:46:53.904Z,96712.1
2023-02-15T01:47:56.393Z,96711
2023-02-15T01:48:58.620Z,96712.2
2023-02-15T01:50:01.224Z,96712.2
2023-02-15T01:51:05.307Z,96712.4
2023-02-15T01:52:07.841Z,96710.2
2023-02-15T01:53:10.337Z,96707.9
2023-02-15T01:54:12.369Z,96701.9
2023-02-15T01:55:14.940Z,96699.9
2023-02-15T01:56:17.477Z,96705
2023-02-15T01:57:20.050Z,96701.3
2023-02-15T01:58:22.550Z,96703.8
2023-02-15T01:59:24.800Z,96703.4
2023-02-15T02:00:26.732Z,96701.4
2023-02-15T02:01:29.205Z,96707.5
2023-02-15T02:02:32.018Z,96709.1
2023-02-15T02:03:34.684Z,96709.3
2023-02-15T02:04:37.187Z,96709
2023-02-15T02:05:39.762Z,96709.4
2023-02-15T02:06:42.298Z,96708.9
2023-02-15T02:07:44.807Z,96711.2
2023-02-15T02:08:47.286Z,96704.4
2023-02-15T02:09:49.870Z,96703.7
2023-02-15T02:10:52.412Z,96699.4
2023-02-15T02:11:54.941Z,96701.6
2023-02-15T02:12:57.474Z,96701
2023-02-15T02:13:59.702Z,96695.3
2023-02-15T02:15:02.202Z,96695.9
2023-02-15T02:16:05.645Z,96692.6
2023-02-15T02:17:08.233Z,96692.5
2023-02-15T02:18:10.471Z,96691
2023-02-15T02:19:12.716Z,96691.3
2023-02-15T02:20:15.245Z,96696.8
2023-02-15T02:21:17.533Z,96695.7
2023-02-15T02:22:20.062Z,96694.5
2023-02-15T02:23:22.287Z,96691.8
2023-02-15T02:24:24.517Z,96688.2
2023-02-15T02:25:27.012Z,96696.1
2023-02-15T02:26:29.237Z,96696.4
2023-02-15T02:27:31.732Z,96695.6
2023-02-15T02:28:33.927Z,96693.7
2023-02-15T02:29:36.460Z,96693.2
2023-02-15T02:30:39.425Z,96693.1
2023-02-15T02:31:42.627Z,96693.5
2023-02-15T02:32:45.045Z,96694.9
2023-02-15T02:33:47.303Z,96697.1
2023-02-15T02:34:49.809Z,96694.2
2023-02-15T02:35:52.006Z,96693.2
2023-02-15T02:36:54.580Z,96694.4
2023-02-15T02:37:57.110Z,96694.5
2023-02-15T02:38:59.319Z,96690.6
2023-02-15T02:40:01.558Z,96694.4
2023-02-15T02:41:04.068Z,96690.1
2023-02-15T02:42:06.556Z,96689.7
2023-02-15T02:43:09.058Z,96691
2023-02-15T02:44:11.587Z,96687.3
2023-02-15T02:45:14.080Z,96687.1
2023-02-15T02:46:16.567Z,96682.8
2023-02-15T02:47:19.184Z,96686.6
2023-02-15T02:48:21.672Z,96683.8
2023-02-15T02:49:24.157Z,96683.9
2023-02-15T02:50:26.976Z,96684.5
2023-02-15T02:51:29.209Z,96687.1
2023-02-15T02:52:31.810Z,96689.9
2023-02-15T02:53:34.339Z,96683.4
2023-02-15T02:54:36.974Z,96689.7
2023-02-15T02:55:39.207Z,96693
2023-02-15T02:56:41.423Z,96687.6
2023-02-15T02:57:43.372Z,96687.9
2023-02-15T02:58:45.881Z,96686.6
2023-02-15T02:59:47.808Z,96686.8
2023-02-15T03:00:49.762Z,96690.5
2023-02-15T03:01:52.405Z,96690.9
2023-02-15T03:02:55.149Z,96689.9
2023-02-15T03:03:57.734Z,96689.6
2023-02-15T03:05:00.322Z,96692.1
2023-02-15T03:06:04.323Z,96690.3
2023-02-15T03:07:06.553Z,96692.3
2023-02-15T03:08:09.260Z,96688
2023-02-15T03:09:11.791Z,96692.1
2023-02-15T03:10:14.297Z,96691.9
2023-02-15T03:11:16.822Z,96694.6
2023-02-15T03:12:19.332Z,96690.3
2023-02-15T03:13:21.001Z,96686.6
2023-02-15T03:14:23.236Z,96689.9
2023-02-15T03:15:25.506Z,96685.8
2023-02-15T03:16:28.471Z,96685.4
2023-02-15T03:17:31.316Z,96681.9
2023-02-15T03:18:33.542Z,96679.6
2023-02-15T03:19:36.113Z,96681.4
2023-02-15T03:20:38.644Z,96679.8
2023-02-15T03:21:41.145Z,96676.5
2023-02-15T03:22:43.645Z,96677
2023-02-15T03:23:46.049Z,96674.7
2023-02-15T03:24:48.311Z,96679.6
2023-02-15T03:25:50.808Z,96675.5
2023-02-15T03:26:53.018Z,96678.1
2023-02-15T03:27:55.533Z,96676
2023-02-15T03:28:58.026Z,96678.8
2023-02-15T03:30:00.857Z,96679.8
2023-02-15T03:31:03.791Z,96679.7
2023-02-15T03:32:06.878Z,96682
2023-02-15T03:33:09.477Z,96682.1
2023-02-15T03:34:11.989Z,96682.7
2023-02-15T03:35:14.523Z,96677.1
2023-02-15T03:36:16.747Z,96679.3
2023-02-15T03:37:19.228Z,96681.3
2023-02-15T03:38:21.478Z,96682.1
2023-02-15T03:39:24.112Z,96679.3
2023-02-15T03:40:26.678Z,96680.9
2023-02-15T03:41:28.981Z,96679.8
2023-02-15T03:42:31.484Z,96679.2
2023-02-15T03:43:33.705Z,96681.1
2023-02-15T03:44:35.935Z,96683.6
2023-02-15T03:45:38.158Z,96680.2
2023-02-15T03:46:40.627Z,96684.2
2023-02-15T03:47:43.265Z,96684.9
2023-02-15T03:48:45.470Z,96682.9
2023-02-15T03:49:47.724Z,96688.4
2023-02-15T03:50:50.328Z,96686.3
2023-02-15T03:51:52.583Z,96682.4
2023-02-15T03:52:54.821Z,96685.1
2023-02-15T03:53:56.765Z,96681.7
2023-02-15T03:54:59.468Z,96678.8
2023-02-15T03:56:03.079Z,96681.1
2023-02-15T03:57:05.908Z,96678.3
2023-02-15T03:58:08.125Z,96683
2023-02-15T03:59:10.419Z,96685.7
2023-02-15T04:00:13.042Z,96685.5
2023-02-15T04:01:16.032Z,96683.3
2023-02-15T04:02:18.661Z,96682.8
2023-02-15T04:03:21.711Z,96686
2023-02-15T04:05:29.281Z,96690.8
2023-02-15T04:06:31.809Z,96686
2023-02-15T04:07:34.044Z,96681.6
2023-02-15T04:08:36.540Z,96687.1
2023-02-15T04:09:39.060Z,96682.3
2023-02-15T04:10:41.651Z,96682.3
2023-02-15T04:11:44.185Z,96681.6
2023-02-15T04:12:46.407Z,96682
2023-02-15T04:13:48.913Z,96684
2023-02-15T04:14:51.416Z,96681.9
2023-02-15T04:15:53.916Z,96686.2
2023-02-15T04:16:56.162Z,96688.5
2023-02-15T04:17:58.700Z,96689.9
2023-02-15T04:19:00.919Z,96684.7
2023-02-15T04:20:03.572Z,96688.1
2023-02-15T04:21:06.070Z,96686.1
2023-02-15T04:22:08.711Z,96688.8
2023-02-15T04:23:11.214Z,96690.2
2023-02-15T04:24:13.156Z,96684.6
2023-02-15T04:25:15.130Z,96685.7
2023-02-15T04:26:17.722Z,96688.1
2023-02-15T04:27:19.798Z,96686.2
2023-02-15T04:28:22.051Z,96687.8
2023-02-15T04:29:24.540Z,96687.3
2023-02-15T04:30:27.482Z,96685.3
2023-02-15T04:31:30.673Z,96690
2023-02-15T04:32:33.373Z,96686.3
2023-02-15T04:33:35.860Z,96688.1
2023-02-15T04:34:38.357Z,96687.7
2023-02-15T04:35:40.848Z,96684
2023-02-15T04:36:43.365Z,96688.3
2023-02-15T04:37:45.650Z,96688
2023-02-15T04:38:47.893Z,96683.8
2023-02-15T04:39:50.412Z,96682.2
2023-02-15T04:40:52.354Z,96686.6
2023-02-15T04:41:54.979Z,96684.4
2023-02-15T04:42:57.534Z,96685.1
2023-02-15T04:44:00.032Z,96685.1
2023-02-15T04:45:02.606Z,96683.8
2023-02-15T04:46:06.118Z,96687.8
2023-02-15T04:47:08.726Z,96686
2023-02-15T04:48:11.254Z,96682.4
2023-02-15T04:49:13.489Z,96683.2
2023-02-15T04:50:16.039Z,96681.6
2023-02-15T04:51:18.296Z,96681
2023-02-15T04:52:20.507Z,96678.7
2023-02-15T04:53:23.010Z,96681
2023-02-15T04:54:25.542Z,96682.6
2023-02-15T04:55:28.048Z,96679.1
2023-02-15T04:56:30.558Z,96682.3
2023-02-15T04:57:33.337Z,96683.1
2023-02-15T04:58:35.863Z,96681.8
2023-02-15T04:59:38.388Z,96689
2023-02-15T05:00:40.329Z,96687.1
2023-02-15T05:01:42.589Z,96688.9
2023-02-15T05:02:45.123Z,96688.8
2023-02-15T05:03:47.079Z,96687.2
2023-02-15T05:04:49.333Z,96687.5
2023-02-15T05:05:51.572Z,96680.8
2023-02-15T05:06:53.506Z,96685.1
2023-02-15T05:07:56.033Z,96683.5
2023-02-15T05:08:58.537Z,96681.8
2023-02-15T05:10:01.072Z,96684.6
2023-02-15T05:11:03.704Z,96684.4
2023-02-15T05:12:06.186Z,96684.3
2023-02-15T05:13:08.875Z,96685.3
2023-02-15T05:14:11.118Z,96684.7
2023-02-15T05:15:13.358Z,96687.5
2023-02-15T05:16:16.076Z,96685.9
2023-02-15T05:17:18.629Z,96684.6
2023-02-15T05:18:21.144Z,96688.9
2023-02-15T05:19:23.638Z,96687.2
2023-02-15T05:20:25.890Z,96685.4
2023-02-15T05:21:28.409Z,96683.2
2023-02-15T05:22:30.910Z,96679.7
2023-02-15T05:23:33.432Z,96679.5
2023-02-15T05:24:35.654Z,96683.3
2023-02-15T05:25:37.619Z,96684.5
2023-02-15T05:26:39.872Z,96685.2
2023-02-15T05:27:42.130Z,96687.4
2023-02-15T05:28:44.738Z,96685.6
2023-02-15T05:29:47.015Z,96688.8
2023-02-15T05:30:49.903Z,96686.1
2023-02-15T05:31:53.147Z,96687.4
2023-02-15T05:32:56.145Z,96686.7
2023-02-15T05:33:58.503Z,96683.2
2023-02-15T05:35:01.056Z,96685.6
2023-02-15T05:36:05.506Z,96683.6
2023-02-15T05:37:08.676Z,96681.7
2023-02-15T05:38:11.179Z,96683.8
2023-02-15T05:39:13.677Z,96687.6
2023-02-15T05:40:16.187Z,96689
2023-02-15T05:41:18.142Z,96688
2023-02-15T05:42:20.638Z,96687.8
2023-02-15T05:43:23.132Z,96689
2023-02-15T05:44:25.730Z,96687.3
2023-02-15T05:45:28.287Z,96687
2023-02-15T05:46:31.158Z,96692.5
2023-02-15T05:47:33.563Z,96691.8
2023-02-15T05:48:36.246Z,96692.9
2023-02-15T05:49:38.522Z,96690.9
2023-02-15T05:50:41.068Z,96693.9
2023-02-15T05:51:43.272Z,96695.6
2023-02-15T05:52:45.501Z,96693.6
2023-02-15T05:53:47.995Z,96695.7
2023-02-15T05:54:50.256Z,96697.4
2023-02-15T05:55:52.222Z,96697.4
2023-02-15T05:56:54.461Z,96697.8
2023-02-15T05:57:57.014Z,96701.2
2023-02-15T05:58:59.530Z,96698
2023-02-15T06:00:02.257Z,96697
2023-02-15T06:01:04.795Z,96699.5
2023-02-15T06:02:07.191Z,96699.4
2023-02-15T06:03:10.141Z,96696.7
2023-02-15T06:04:12.726Z,96700.4
2023-02-15T06:05:14.976Z,96704
2023-02-15T06:06:17.249Z,96707
2023-02-15T06:07:19.792Z,96706.5
2023-02-15T06:08:22.335Z,96705.1
2023-02-15T06:09:24.892Z,96705.2
2023-02-15T06:10:27.416Z,96702.7
2023-02-15T06:11:29.634Z,96699.5
2023-02-15T06:12:32.158Z,96702.7
2023-02-15T06:14:40.359Z,96695.4
2023-02-15T06:15:43.173Z,96697.2
2023-02-15T06:16:45.848Z,96698.9
2023-02-15T06:17:48.081Z,96698
2023-02-15T06:18:52.797Z,96700.8
2023-02-15T06:19:57.331Z,96700.9
2023-02-15T06:20:59.856Z,96698.2
2023-02-15T06:22:02.368Z,96699.4
2023-02-15T06:23:04.883Z,96701.1
2023-02-15T06:24:07.389Z,96703.4
2023-02-15T06:25:09.877Z,96701.1
2023-02-15T06:26:11.828Z,96706.5
2023-02-15T06:27:14.037Z,96703.8
2023-02-15T06:28:16.557Z,96702.3
2023-02-15T06:29:18.770Z,96707.1
2023-02-15T06:30:21.642Z,96704.4
2023-02-15T06:31:25.032Z,96705.8
2023-02-15T06:32:27.746Z,96711.6
2023-02-15T06:33:29.982Z,96706.5
2023-02-15T06:34:32.471Z,96707.8
2023-02-15T06:35:35.001Z,96706.8
2023-02-15T06:36:37.515Z,96712.3
2023-02-15T06:37:40.070Z,96707.5
2023-02-15T06:38:42.565Z,96710.5
2023-02-15T06:39:45.046Z,96709.8
2023-02-15T06:40:47.573Z,96713.4
2023-02-15T06:41:50.061Z,96712.6
2023-02-15T06:42:52.575Z,96711.6
2023-02-15T06:43:55.066Z,96711.8
2023-02-15T06:44:57.735Z,96712.5
2023-02-15T06:46:01.469Z,96717.2
2023-02-15T06:47:04.749Z,96715.8
2023-02-15T06:48:07.285Z,96715.6
2023-02-15T06:49:09.796Z,96716.8
2023-02-15T06:50:12.309Z,96717.6
2023-02-15T06:51:14.839Z,96721.3
2023-02-15T06:52:17.337Z,96717.7
2023-02-15T06:53:19.859Z,96718.7
2023-02-15T06:54:22.380Z,96717
2023-02-15T06:55:24.891Z,96717.5
2023-02-15T06:56:27.119Z,96716.6
2023-02-15T06:57:29.691Z,96714.3
2023-02-15T06:58:32.181Z,96721.2
2023-02-15T06:59:34.693Z,96720.5
2023-02-15T07:00:37.203Z,96719.5
2023-02-15T07:01:40.003Z,96720.3
2023-02-15T07:02:42.823Z,96719.2
2023-02-15T07:03:45.391Z,96716.5
2023-02-15T07:04:48.307Z,96716.5
2023-02-15T07:05:50.922Z,96719.4
2023-02-15T07:07:58.135Z,96724.8
2023-02-15T07:09:00.635Z,96722
2023-02-15T07:10:03.180Z,96719
2023-02-15T07:11:04.879Z,96722.7
2023-02-15T07:12:07.095Z,96716.6
2023-02-15T07:13:09.350Z,96715
2023-02-15T07:14:11.028Z,96723.3
2023-02-15T07:15:13.293Z,96717.6
2023-02-15T07:16:16.090Z,96723.6
2023-02-15T07:18:23.771Z,96725.6
2023-02-15T07:19:26.063Z,96717
2023-02-15T07:20:28.564Z,96725
2023-02-15T07:21:31.081Z,96721.2
2023-02-15T07:22:33.356Z,96723
2023-02-15T07:23:35.857Z,96726.2
2023-02-15T07:24:38.373Z,96727.2
2023-02-15T07:25:40.076Z,96725.1
2023-02-15T07:26:42.308Z,96734.1
2023-02-15T07:27:44.820Z,96731.1
2023-02-15T07:28:47.042Z,96729.1
2023-02-15T07:29:49.293Z,96731
2023-02-15T07:30:52.119Z,96731.9
2023-02-15T07:31:55.075Z,96725.2
2023-02-15T07:32:57.631Z,96728.6
2023-02-15T07:34:00.286Z,96722.8
2023-02-15T07:35:02.840Z,96719.4
2023-02-15T07:36:05.789Z,96725.2
2023-02-15T07:37:08.348Z,96722
2023-02-15T07:38:10.318Z,96721.6
2023-02-15T07:39:12.840Z,96714.1
2023-02-15T07:40:15.348Z,96716.1
2023-02-15T07:41:17.359Z,96714.1
2023-02-15T07:42:19.591Z,96717
2023-02-15T07:43:21.888Z,96712.6
2023-02-15T07:44:24.378Z,96707.4
2023-02-15T07:45:26.624Z,96711.8
2023-02-15T07:46:29.107Z,96712.4
2023-02-15T07:47:31.705Z,96708.6
2023-02-15T07:48:33.946Z,96708.4
2023-02-15T07:49:36.618Z,96707.7
2023-02-15T07:50:39.169Z,96707.9
2023-02-15T07:51:41.693Z,96711.9
2023-02-15T07:52:44.256Z,96703.9
2023-02-15T07:53:46.792Z,96706.6
2023-02-15T07:54:49.304Z,96704.3
2023-02-15T07:55:51.538Z,96700.1
2023-02-15T07:56:54.034Z,96699.4
2023-02-15T07:57:56.319Z,96699.1
2023-02-15T07:58:58.540Z,96699.5
2023-02-15T08:00:01.156Z,96694.6
2023-02-15T08:01:03.778Z,96693.2
2023-02-15T08:02:06.268Z,96698.7
2023-02-15T08:03:08.423Z,96697.8
2023-02-15T08:04:10.578Z,96699.5
2023-02-15T08:05:12.625Z,96698.7
2023-02-15T08:06:15.163Z,96698.9
2023-02-15T08:07:17.728Z,96700.3
2023-02-15T08:08:20.254Z,96697.6
2023-02-15T08:09:22.760Z,96700.9
2023-02-15T08:10:25.841Z,96699.9
2023-02-15T08:11:28.126Z,96701.5
2023-02-15T08:12:30.364Z,96705
2023-02-15T08:13:32.878Z,96703
2023-02-15T08:14:35.403Z,96699
2023-02-15T08:15:37.627Z,96699.6
2023-02-15T08:16:40.116Z,96701.1
2023-02-15T08:17:42.844Z,96700.2
2023-02-15T08:18:45.342Z,96697.2
2023-02-15T08:19:47.861Z,96693.3
2023-02-15T08:20:50.461Z,96696
2023-02-15T08:21:52.760Z,96698.1
2023-02-15T08:22:55.263Z,96694.1
2023-02-15T08:23:57.501Z,96697.4
2023-02-15T08:24:59.739Z,96695.6
2023-02-15T08:26:03.967Z,96697.5
2023-02-15T08:27:07.957Z,96697.2
2023-02-15T08:28:10.474Z,96698.1
2023-02-15T08:29:12.725Z,96694.7
2023-02-15T08:30:15.252Z,96698.6
2023-02-15T08:31:18.102Z,96698.3
2023-02-15T08:32:20.837Z,96694.7
2023-02-15T08:33:23.174Z,96696.4
2023-02-15T08:34:25.700Z,96698.2
2023-02-15T08:35:27.965Z,96693.3
2023-02-15T08:36:30.570Z,96695
2023-02-15T08:37:32.832Z,96694.4
2023-02-15T08:38:35.376Z,96691.9
2023-02-15T08:39:37.631Z,96690.9
2023-02-15T08:40:40.152Z,96691.8
2023-02-15T08:41:42.390Z,96690
2023-02-15T08:42:44.944Z,96691.3
2023-02-15T08:43:47.513Z,96694.5
2023-02-15T08:44:51.841Z,96691.8
2023-02-15T08:45:54.157Z,96689.6
2023-02-15T08:46:56.348Z,96695.1
2023-02-15T08:47:58.034Z,96697.3
2023-02-15T08:49:00.561Z,96695
2023-02-15T08:50:03.103Z,96694.8
2023-02-15T08:51:05.933Z,96691.7
2023-02-15T08:52:08.311Z,96697.3
2023-02-15T08:53:10.885Z,96695.5
2023-02-15T08:54:13.416Z,96695.8
2023-02-15T08:55:15.652Z,96693.3
2023-02-15T08:56:18.156Z,96695.3
2023-02-15T08:57:20.382Z,96694.5
2023-02-15T08:58:22.608Z,96695
2023-02-15T08:59:24.891Z,96695.5
2023-02-15T09:00:27.457Z,96693.9
2023-02-15T09:01:30.218Z,96698.6
2023-02-15T09:02:33.124Z,96695.5
2023-02-15T09:03:35.766Z,96695.9
2023-02-15T09:04:38.003Z,96694.7
2023-02-15T09:05:39.971Z,96694
2023-02-15T09:06:42.496Z,96695.8
2023-02-15T09:07:45.276Z,96693.7
2023-02-15T09:08:47.807Z,96693.8
2023-02-15T09:09:50.061Z,96687.8
2023-02-15T09:10:52.315Z,96687.1
2023-02-15T09:12:59.514Z,96690.4
2023-02-15T09:14:02.067Z,96688
2023-02-15T09:15:04.712Z,96687.3
2023-02-15T09:16:07.264Z,96686.6
2023-02-15T09:17:09.858Z,96692.4
2023-02-15T09:18:12.391Z,96690.4
2023-02-15T09:19:14.986Z,96688.5
2023-02-15T09:20:17.478Z,96684.2
2023-02-15T09:21:19.716Z,96683.3
2023-02-15T09:22:21.976Z,96684.7
2023-02-15T09:24:29.721Z,96680.8
2023-02-15T09:25:32.293Z,96682.2
2023-02-15T09:26:34.836Z,96677.4
2023-02-15T09:27:37.084Z,96678.1
2023-02-15T09:28:39.613Z,96677
2023-02-15T09:29:41.998Z,96678
2023-02-15T09:30:44.772Z,96677.1
2023-02-15T09:31:47.690Z,96673
2023-02-15T09:32:50.348Z,96679.2
2023-02-15T09:33:52.384Z,96677.7
2023-02-15T09:34:54.639Z,96680.8
2023-02-15T09:35:57.160Z,96681.4
2023-02-15T09:36:59.412Z,96679
2023-02-15T09:38:01.353Z,96678.3
2023-02-15T09:39:04.007Z,96675.9
2023-02-15T09:40:06.658Z,96679
2023-02-15T09:41:09.232Z,96678
2023-02-15T09:42:11.234Z,96678.8
2023-02-15T09:43:13.817Z,96679.2
2023-02-15T09:44:16.056Z,96679.6
2023-02-15T09:45:20.328Z,96673.8
2023-02-15T09:46:22.689Z,96676.6
2023-02-15T09:47:25.459Z,96675.9
2023-02-15T09:48:28.015Z,96676
2023-02-15T09:49:30.582Z,96679.4
2023-02-15T09:50:34.614Z,96682.7
2023-02-15T09:51:38.859Z,96681.3
2023-02-15T09:52:41.119Z,96677.6
2023-02-15T09:53:43.479Z,96680.5
2023-02-15T09:54:46.169Z,96683.5
2023-02-15T09:55:48.201Z,96684.2
2023-02-15T09:56:50.811Z,96687
2023-02-15T09:57:53.333Z,96684.4
2023-02-15T09:58:55.601Z,96682.3
2023-02-15T09:59:57.836Z,96685.6
2023-02-15T10:01:01.724Z,96684.1
2023-02-15T10:02:04.714Z,96683.7
2023-02-15T10:03:08.368Z,96683.9
2023-02-15T10:04:11.270Z,96683.8
2023-02-15T10:05:13.850Z,96684.2
2023-02-15T10:06:16.124Z,96682.8
2023-02-15T10:07:18.397Z,96681.3
2023-02-15T10:08:20.914Z,96678.8
2023-02-15T10:09:23.171Z,96677.5
2023-02-15T10:10:25.434Z,96682.6
2023-02-15T10:11:27.860Z,96681.8
2023-02-15T10:12:30.545Z,96674
2023-02-15T10:13:33.057Z,96682
2023-02-15T10:14:35.567Z,96678.4
2023-02-15T10:15:38.088Z,96678.5
2023-02-15T10:16:40.584Z,96678.9
2023-02-15T10:17:43.247Z,96676
2023-02-15T10:18:45.777Z,96671.1
2023-02-15T10:19:48.307Z,96673
2023-02-15T10:20:50.903Z,96674.5
2023-02-15T10:21:53.419Z,96672.4
2023-02-15T10:22:55.648Z,96671.6
2023-02-15T10:23:57.870Z,96669.9
2023-02-15T10:25:00.132Z,96672.6
2023-02-15T10:26:04.456Z,96670.6
2023-02-15T10:27:07.505Z,96669.1
2023-02-15T10:28:10.068Z,96673
2023-02-15T10:29:12.298Z,96667.8
2023-02-15T10:30:15.139Z,96672
2023-02-15T10:31:18.022Z,96670.2
2023-02-15T10:32:20.944Z,96668.9
2023-02-15T10:33:22.992Z,96669.8
2023-02-15T10:34:25.550Z,96663.8
2023-02-15T10:35:28.059Z,96664.5
2023-02-15T10:36:30.621Z,96667.3
2023-02-15T10:37:32.860Z,96667.3
2023-02-15T10:38:35.390Z,96664.3
2023-02-15T10:39:37.957Z,96663.4
2023-02-15T10:40:40.493Z,96664.1
2023-02-15T10:41:42.755Z,96664.7
2023-02-15T10:42:45.398Z,96659.7
2023-02-15T10:43:47.965Z,96659.3
2023-02-15T10:44:50.474Z,96657.2
2023-02-15T10:45:53.214Z,96654.2
2023-02-15T10:46:55.827Z,96653.9
2023-02-15T10:47:58.057Z,96653.8
2023-02-15T10:49:00.592Z,96655
2023-02-15T10:50:02.556Z,96646.4
2023-02-15T10:51:05.367Z,96649.9
2023-02-15T10:52:07.880Z,96651.7
2023-02-15T10:53:10.470Z,96647.3
2023-02-15T10:54:12.730Z,96646.1
2023-02-15T10:55:15.543Z,96646.8
2023-02-15T10:56:18.067Z,96641.7
2023-02-15T10:57:20.315Z,96638.3
2023-02-15T10:58:22.729Z,96639.3
2023-02-15T10:59:25.285Z,96642.8
2023-02-15T11:00:27.679Z,96637.6
2023-02-15T11:01:30.311Z,96633.9
2023-02-15T11:02:32.922Z,96636.1
2023-02-15T11:03:35.151Z,96633.3
2023-02-15T11:04:37.565Z,96628.9
2023-02-15T11:05:39.822Z,96626.6
2023-02-15T11:06:42.310Z,96628.9
2023-02-15T11:07:44.843Z,96630.1
2023-02-15T11:08:47.441Z,96625.5
2023-02-15T11:09:49.917Z,96626.1
2023-02-15T11:10:52.437Z,96619.3
2023-02-15T11:11:54.999Z,96621.8
2023-02-15T11:12:57.253Z,96624.3
2023-02-15T11:13:59.639Z,96614
2023-02-15T11:15:02.161Z,96611.1
2023-02-15T11:16:04.573Z,96612.3
2023-02-15T11:17:07.160Z,96614.2
2023-02-15T11:18:09.129Z,96608.2
2023-02-15T11:19:11.678Z,96611.1
2023-02-15T11:20:13.905Z,96611.3
2023-02-15T11:21:16.414Z,96608.4
2023-02-15T11:22:19.673Z,96610.7
2023-02-15T11:23:21.890Z,96607.2
2023-02-15T11:24:24.122Z,96606.1
2023-02-15T11:25:26.387Z,96603.6
2023-02-15T11:26:28.887Z,96597.2
2023-02-15T11:27:31.757Z,96598.5
2023-02-15T11:28:34.486Z,96593.5
2023-02-15T11:29:37.235Z,96592.2
2023-02-15T11:30:39.525Z,96592.4
2023-02-15T11:31:42.957Z,96592.4
2023-02-15T11:32:45.482Z,96589.4
2023-02-15T11:33:47.700Z,96587
2023-02-15T11:34:50.210Z,96584.2
2023-02-15T11:35:52.715Z,96584.3
2023-02-15T11:36:55.238Z,96581.3
2023-02-15T11:37:57.768Z,96583
2023-02-15T11:39:00.009Z,96576.9
2023-02-15T11:40:02.555Z,96578.5
2023-02-15T11:41:06.253Z,96575
2023-02-15T11:42:08.516Z,96572.5
2023-02-15T11:43:10.456Z,96569.4
2023-02-15T11:44:13.013Z,96573.4
2023-02-15T11:45:15.636Z,96568.6
2023-02-15T11:46:19.371Z,96568.7
2023-02-15T11:47:21.493Z,96564.3
2023-02-15T11:48:23.574Z,96562.4
2023-02-15T11:49:26.105Z,96561.4
2023-02-15T11:50:28.042Z,96558.8
2023-02-15T11:51:30.539Z,96552.2
2023-02-15T11:52:33.099Z,96556.7
2023-02-15T11:53:35.613Z,96559.5
2023-02-15T11:54:38.171Z,96553.4
2023-02-15T11:55:40.683Z,96553
2023-02-15T11:56:43.240Z,96552
2023-02-15T11:57:45.755Z,96546.8
2023-02-15T11:58:48.247Z,96553.3
2023-02-15T11:59:50.787Z,96548.8
2023-02-15T12:00:53.584Z,96543.5
2023-02-15T12:01:55.858Z,96546.9
2023-02-15T12:02:58.559Z,96549.1
2023-02-15T12:04:01.477Z,96546.5
2023-02-15T12:05:03.883Z,96545.5
2023-02-15T12:06:06.162Z,96540.5
2023-02-15T12:07:08.432Z,96544.9
2023-02-15T12:08:10.958Z,96544
2023-02-15T12:09:13.256Z,96540.3
2023-02-15T12:10:15.528Z,96534.3
2023-02-15T12:11:17.552Z,96536.5
2023-02-15T12:12:19.778Z,96529.1
2023-02-15T12:13:22.322Z,96527.4
2023-02-15T12:14:24.540Z,96528.2
2023-02-15T12:15:26.533Z,96527.3
2023-02-15T12:16:29.148Z,96522.2
2023-02-15T12:17:31.879Z,96524.7
2023-02-15T12:18:34.128Z,96527.4
2023-02-15T12:19:36.416Z,96522.8
2023-02-15T12:20:38.913Z,96519.7
2023-02-15T12:21:41.441Z,96517.1
2023-02-15T12:22:43.952Z,96517.8
2023-02-15T12:23:46.476Z,96516.7
2023-02-15T12:24:48.707Z,96518.7
2023-02-15T12:25:50.929Z,96520
2023-02-15T12:26:53.433Z,96516.4
2023-02-15T12:27:55.933Z,96515.9
2023-02-15T12:28:58.437Z,96515.4
2023-02-15T12:30:01.365Z,96508.6
2023-02-15T12:31:06.208Z,96509.7
2023-02-15T12:32:09.741Z,96509
2023-02-15T12:33:12.417Z,96509.6
2023-02-15T12:34:14.663Z,96505
2023-02-15T12:35:17.226Z,96502.2
2023-02-15T12:36:19.820Z,96506.8
2023-02-15T12:37:22.467Z,96498.6
2023-02-15T12:38:24.699Z,96499.9
2023-02-15T12:39:27.205Z,96500.2
2023-02-15T12:41:34.680Z,96495.2
2023-02-15T12:42:36.627Z,96494
2023-02-15T12:43:39.178Z,96495.6
2023-02-15T12:44:41.968Z,96494.9
2023-02-15T12:45:44.504Z,96493.8
2023-02-15T12:46:49.072Z,96495.3
2023-02-15T12:47:51.768Z,96495.3
2023-02-15T12:48:54.309Z,96496.2